To NAV CANADA Home Page Login to a new session Search on AWWS site Feedback and Comments Disclaimer Vers la page française équivalente Tips FAQ What's new on the site To the Forecasts and Observations / NOTAM section To "File a Flight Plan" website Publications and other links Update of the User's profile FIC Telephone Numbers My Weather Data Folder Route Weather Data Regional Weather Data Local Weather Data To the Forecasts and Observations / NOTAM section
Request Generated 08/24/2016 at 23:09:09 UTC . Weather information available at that time is displayed.

METAR/TAF

MONTREAL INTL (MIRABEL)/QC    

METAR CYMX 242300Z 19005KT 45SM BKN220 BKN250 24/19 A3003 RMK CS5CI2
SLP172 DENSITY ALT 1200FT=
METAR CYMX 242200Z 21005KT 45SM SCT220 BKN250 26/19 A3004 RMK CS3CI3
SLP175 DENSITY ALT 1400FT=
METAR CYMX 242100Z 23007KT 180V250 45SM FEW040 BKN250 27/19 A3006 RMK
CF1CI5 SLP180 DENSITY ALT 1500FT=

TAF CYMX 241738Z 2418/2518 22008G18KT P6SM FEW040
FM250000 21007KT P6SM SCT220
FM251100 23008KT P6SM BKN060
FM251300 23008G18KT P6SM OVC030 TEMPO 2513/2517 P6SM -SHRA OVC020
FM251700 23010G20KT P6SM BKN040
RMK NXT FCST BY 250000Z=
Your time UTC time
Weather data provided by Environment Canada and NAV CANADA